New London — WYW9986 — position and weather

sailwx.info

Track history (hours):
 
Tides and Currents Weather Stations Pressure Air Temp Water Temp Dewpoint Dewpoint Depression Visibility Wind Speed Wind Dir Waves Ship Positions

New London

Owner: CROSS SOUND FERRY SVCS INC, NEW LONDON, CT. More information available from US FCC via Universal Licensing System and Coast Guard Vessel Documentation Center.

Last reported at 2017-Sep-18 01:46 UTC. Time now 2017-Sep-23 16:30 UTC.
Position N 41°11' W 072°13'.

Length 76 m; draft 3 m.

Type: Passenger vessel. MMSI: 366925620.

Date/timePositionNaut miles runAvg speedWind from/ knotsBaromVisibWave heightAir tempDewpointWater temp
2017-Sep-18 01:46N 41°11' W 072°13'1 1.0
2017-Sep-18 00:44N 41°10' W 072°13'311.8
2017-Sep-18 00:30N 41°12' W 072°13'3 0.7
2017-Sep-17 20:46N 41°09' W 072°14'311.1
2017-Sep-17 20:30N 41°12' W 072°13'3 1.4
2017-Sep-17 18:08N 41°14' W 072°09'515.0
2017-Sep-17 17:50N 41°11' W 072°14'0 0.1
2017-Sep-17 16:48N 41°11' W 072°14'310.9
2017-Sep-17 16:30N 41°13' W 072°11'3 1.2
2017-Sep-17 13:49N 41°11' W 072°13'1 1.2
2017-Sep-17 13:00N 41°10' W 072°13'3 5.2
2017-Sep-17 12:30N 41°12' W 072°14'7 0.4
2017-Sep-16 18:14N 41°15' W 072°07'7 4.2
2017-Sep-16 16:39N 41°11' W 072°13'211.3
2017-Sep-16 16:30N 41°12' W 072°12'2 0.8
2017-Sep-16 13:47N 41°10' W 072°13'0 0.2
2017-Sep-16 12:32N 41°11' W 072°13'112.3
2017-Sep-16 12:28N 41°11' W 072°13'713.7
2017-Sep-16 11:58N 41°16' W 072°07'8 0.7
2017-Sep-16 01:44N 41°11' W 072°13'1 1.0
2017-Sep-16 00:42N 41°10' W 072°13'212.5
2017-Sep-16 00:31N 41°12' W 072°13'712.8
2017-Sep-16 00:00N 41°16' W 072°07'8 2.3
2017-Sep-15 20:36N 41°11' W 072°14'113.4
2017-Sep-15 20:30N 41°12' W 072°13'2 0.6
2017-Sep-15 17:47N 41°11' W 072°13'1 1.2
2017-Sep-15 16:47N 41°09' W 072°14'311.5
2017-Sep-15 16:30N 41°12' W 072°12'612.0
2017-Sep-15 16:00N 41°17' W 072°06'8 3.6
2017-Sep-15 13:44N 41°10' W 072°13'1 0.7
2017-Sep-15 12:42N 41°10' W 072°13'212.1
2017-Sep-15 12:31N 41°12' W 072°13'2 0.1
2017-Sep-14 20:06N 41°10' W 072°14'113.7
2017-Sep-14 20:00N 41°12' W 072°13'1 0.2
2017-Sep-14 16:05N 41°11' W 072°13'112.5
2017-Sep-14 16:00N 41°12' W 072°12'2 0.6
2017-Sep-14 13:17N 41°11' W 072°13'0 0.3
2017-Sep-14 12:09N 41°11' W 072°14'211.4
2017-Sep-14 12:00N 41°12' W 072°12'  
2017-Sep-11 17:23N 41°11' W 072°13'1 1.0
2017-Sep-11 16:12N 41°09' W 072°14'211.0
2017-Sep-11 15:59N 41°12' W 072°13'1 0.1
2017-Sep-11 01:44N 41°11' W 072°13'0 0.3
2017-Sep-11 00:41N 41°11' W 072°14'212.2
2017-Sep-11 00:30N 41°12' W 072°12'612.3
2017-Sep-11 00:00N 41°17' W 072°06'8 3.7
2017-Sep-10 21:47N 41°11' W 072°13'1 1.1
2017-Sep-10 20:47N 41°09' W 072°13'310.8
2017-Sep-10 20:30N 41°12' W 072°12'2 0.7
2017-Sep-10 17:46N 41°11' W 072°13'0 0.2
2017-Sep-10 16:32N 41°11' W 072°14'013.1
2017-Sep-10 16:30N 41°11' W 072°14'814.9
2017-Sep-10 16:00N 41°17' W 072°07'8 3.6
2017-Sep-10 13:44N 41°10' W 072°13'1 0.9
2017-Sep-10 12:31N 41°11' W 072°13'013.7
2017-Sep-10 12:31N 41°12' W 072°13'713.1
2017-Sep-10 11:59N 41°16' W 072°07'8 0.4
2017-Sep-09 16:34N 41°11' W 072°13'113.2
2017-Sep-09 16:30N 41°11' W 072°13'1 0.2
2017-Sep-09 12:29N 41°11' W 072°13'713.6
2017-Sep-09 12:00N 41°16' W 072°08'8 0.7
2017-Sep-09 00:43N 41°09' W 072°14'2 9.9
2017-Sep-09 00:30N 41°12' W 072°14'713.4
2017-Sep-09 00:00N 41°16' W 072°07'8 2.6
2017-Sep-08 20:51N 41°10' W 072°13'4 9.9
2017-Sep-08 20:28N 41°13' W 072°11'3 1.1
2017-Sep-08 17:47N 41°10' W 072°13'0 0.3
2017-Sep-08 16:35N 41°11' W 072°14'111.7
2017-Sep-08 16:30N 41°12' W 072°13'2 0.6
2017-Sep-08 12:41N 41°10' W 072°13'210.5
2017-Sep-08 12:30N 41°11' W 072°13'713.7
2017-Sep-08 12:00N 41°16' W 072°07'  
Track history (hours):
 
Tides and Currents Weather Stations Pressure Air Temp Water Temp Dewpoint Dewpoint Depression Visibility Wind Speed Wind Dir Waves Ship Positions

New London

Owner: CROSS SOUND FERRY SVCS INC, NEW LONDON, CT. More information available from US FCC via Universal Licensing System and Coast Guard Vessel Documentation Center.

Last reported at 2017-Sep-18 01:46 UTC. Time now 2017-Sep-23 16:30 UTC.
Position N 41°11' W 072°13'.

Length 76 m; draft 3 m.

Type: Passenger vessel. MMSI: 366925620.

Date/timePositionNaut miles runAvg speedWind from/ knotsBaromVisibWave heightAir tempDewpointWater temp
2017-Sep-18 01:46N 41°11' W 072°13'1 1.0
2017-Sep-18 00:44N 41°10' W 072°13'311.8
2017-Sep-18 00:30N 41°12' W 072°13'3 0.7
2017-Sep-17 20:46N 41°09' W 072°14'311.1
2017-Sep-17 20:30N 41°12' W 072°13'3 1.4
2017-Sep-17 18:08N 41°14' W 072°09'515.0
2017-Sep-17 17:50N 41°11' W 072°14'0 0.1
2017-Sep-17 16:48N 41°11' W 072°14'310.9
2017-Sep-17 16:30N 41°13' W 072°11'3 1.2
2017-Sep-17 13:49N 41°11' W 072°13'1 1.2
2017-Sep-17 13:00N 41°10' W 072°13'3 5.2
2017-Sep-17 12:30N 41°12' W 072°14'7 0.4
2017-Sep-16 18:14N 41°15' W 072°07'7 4.2
2017-Sep-16 16:39N 41°11' W 072°13'211.3
2017-Sep-16 16:30N 41°12' W 072°12'2 0.8
2017-Sep-16 13:47N 41°10' W 072°13'0 0.2
2017-Sep-16 12:32N 41°11' W 072°13'112.3
2017-Sep-16 12:28N 41°11' W 072°13'713.7
2017-Sep-16 11:58N 41°16' W 072°07'8 0.7
2017-Sep-16 01:44N 41°11' W 072°13'1 1.0
2017-Sep-16 00:42N 41°10' W 072°13'212.5
2017-Sep-16 00:31N 41°12' W 072°13'712.8
2017-Sep-16 00:00N 41°16' W 072°07'8 2.3
2017-Sep-15 20:36N 41°11' W 072°14'113.4
2017-Sep-15 20:30N 41°12' W 072°13'2 0.6
2017-Sep-15 17:47N 41°11' W 072°13'1 1.2
2017-Sep-15 16:47N 41°09' W 072°14'311.5
2017-Sep-15 16:30N 41°12' W 072°12'612.0
2017-Sep-15 16:00N 41°17' W 072°06'8 3.6
2017-Sep-15 13:44N 41°10' W 072°13'1 0.7
2017-Sep-15 12:42N 41°10' W 072°13'212.1
2017-Sep-15 12:31N 41°12' W 072°13'2 0.1
2017-Sep-14 20:06N 41°10' W 072°14'113.7
2017-Sep-14 20:00N 41°12' W 072°13'1 0.2
2017-Sep-14 16:05N 41°11' W 072°13'112.5
2017-Sep-14 16:00N 41°12' W 072°12'2 0.6
2017-Sep-14 13:17N 41°11' W 072°13'0 0.3
2017-Sep-14 12:09N 41°11' W 072°14'211.4
2017-Sep-14 12:00N 41°12' W 072°12'  
2017-Sep-11 17:23N 41°11' W 072°13'1 1.0
2017-Sep-11 16:12N 41°09' W 072°14'211.0
2017-Sep-11 15:59N 41°12' W 072°13'1 0.1
2017-Sep-11 01:44N 41°11' W 072°13'0 0.3
2017-Sep-11 00:41N 41°11' W 072°14'212.2
2017-Sep-11 00:30N 41°12' W 072°12'612.3
2017-Sep-11 00:00N 41°17' W 072°06'8 3.7
2017-Sep-10 21:47N 41°11' W 072°13'1 1.1
2017-Sep-10 20:47N 41°09' W 072°13'310.8
2017-Sep-10 20:30N 41°12' W 072°12'2 0.7
2017-Sep-10 17:46N 41°11' W 072°13'0 0.2
2017-Sep-10 16:32N 41°11' W 072°14'013.1
2017-Sep-10 16:30N 41°11' W 072°14'814.9
2017-Sep-10 16:00N 41°17' W 072°07'8 3.6
2017-Sep-10 13:44N 41°10' W 072°13'1 0.9
2017-Sep-10 12:31N 41°11' W 072°13'013.7
2017-Sep-10 12:31N 41°12' W 072°13'713.1
2017-Sep-10 11:59N 41°16' W 072°07'8 0.4
2017-Sep-09 16:34N 41°11' W 072°13'113.2
2017-Sep-09 16:30N 41°11' W 072°13'1 0.2
2017-Sep-09 12:29N 41°11' W 072°13'713.6
2017-Sep-09 12:00N 41°16' W 072°08'8 0.7
2017-Sep-09 00:43N 41°09' W 072°14'2 9.9
2017-Sep-09 00:30N 41°12' W 072°14'713.4
2017-Sep-09 00:00N 41°16' W 072°07'8 2.6
2017-Sep-08 20:51N 41°10' W 072°13'4 9.9
2017-Sep-08 20:28N 41°13' W 072°11'3 1.1
2017-Sep-08 17:47N 41°10' W 072°13'0 0.3
2017-Sep-08 16:35N 41°11' W 072°14'111.7
2017-Sep-08 16:30N 41°12' W 072°13'2 0.6
2017-Sep-08 12:41N 41°10' W 072°13'210.5
2017-Sep-08 12:30N 41°11' W 072°13'713.7
2017-Sep-08 12:00N 41°16' W 072°07'  

Dump ship's entire track history